createdAt,value
2019-04-20T00:01:36.041Z,78.47
2019-04-20T00:04:10.841Z,78.64
2019-04-20T00:06:46.262Z,78.57
2019-04-20T00:09:15.865Z,79.64
2019-04-20T00:11:53.651Z,77.08
2019-04-20T00:14:22.478Z,77.79
2019-04-20T00:16:48.530Z,78.03
2019-04-20T00:19:26.139Z,77.77
2019-04-20T00:22:00.310Z,77.89
2019-04-20T00:24:41.075Z,77.78
2019-04-20T00:27:38.833Z,78.13
2019-04-20T00:29:59.701Z,78.90
2019-04-20T00:32:29.634Z,78.32
2019-04-20T00:34:50.367Z,79.15
2019-04-20T00:37:21.241Z,78.79
2019-04-20T00:39:53.014Z,79.04
2019-04-20T00:42:33.143Z,79.11
2019-04-20T00:45:06.765Z,78.91
2019-04-20T00:47:37.303Z,79.59
2019-04-20T00:50:19.630Z,80.58
2019-04-20T00:52:51.746Z,81.00
2019-04-20T00:55:08.360Z,80.03
2019-04-20T00:57:47.682Z,79.99
2019-04-20T01:00:35.743Z,80.86
2019-04-20T01:02:55.567Z,84.23
2019-04-20T01:05:47.916Z,86.80
2019-04-20T01:08:12.835Z,86.92
2019-04-20T01:10:49.098Z,86.11
2019-04-20T01:13:20.075Z,85.31
2019-04-20T01:15:55.437Z,85.03
2019-04-20T01:18:21.033Z,84.49
2019-04-20T01:20:51.634Z,83.30
2019-04-20T01:23:24.210Z,83.44
2019-04-20T01:26:01.259Z,83.97
2019-04-20T01:28:44.151Z,84.56
2019-04-20T01:31:10.062Z,84.57
2019-04-20T01:33:43.838Z,82.72
2019-04-20T01:36:19.594Z,82.17
2019-04-20T01:38:47.581Z,81.66
2019-04-20T01:41:07.521Z,81.26
2019-04-20T01:43:39.494Z,82.10
2019-04-20T01:46:15.663Z,82.12
2019-04-20T01:48:48.831Z,81.69
2019-04-20T01:51:26.391Z,81.52
2019-04-20T01:54:17.712Z,81.33
2019-04-20T01:56:44.923Z,81.75
2019-04-20T01:59:39.627Z,82.03
2019-04-20T02:02:21.606Z,81.70
2019-04-20T02:05:07.057Z,81.81
2019-04-20T02:07:38.965Z,82.58
2019-04-20T02:10:08.195Z,82.87
2019-04-20T02:12:39.527Z,83.69
2019-04-20T02:15:20.039Z,83.44
2019-04-20T02:17:53.720Z,82.76
2019-04-20T02:20:37.542Z,82.44
2019-04-20T02:23:03.143Z,82.33
2019-04-20T02:25:21.000Z,82.28
2019-04-20T02:27:56.949Z,81.95
2019-04-20T02:31:00.017Z,81.23
2019-04-20T02:33:34.457Z,80.76
2019-04-20T02:36:24.752Z,80.88
2019-04-20T02:39:28.737Z,81.95
2019-04-20T02:41:51.795Z,81.97
2019-04-20T02:44:25.611Z,83.31
2019-04-20T02:51:52.759Z,85.72
2019-04-20T02:54:36.911Z,84.83
2019-04-20T02:59:53.832Z,85.09
2019-04-20T03:01:50.257Z,84.55
2019-04-20T03:04:17.402Z,84.43
2019-04-20T03:06:54.973Z,84.32
2019-04-20T03:09:31.507Z,84.19
2019-04-20T03:14:30.343Z,83.38
2019-04-20T03:17:12.742Z,82.67
2019-04-20T03:19:35.538Z,82.57
2019-04-20T03:22:14.835Z,82.43
2019-04-20T03:25:03.946Z,82.43
2019-04-20T03:27:21.181Z,82.28
2019-04-20T03:30:04.499Z,82.51
2019-04-20T03:35:20.892Z,84.81
2019-04-20T03:37:42.205Z,85.83
2019-04-20T03:40:12.849Z,85.08
2019-04-20T03:42:31.141Z,84.40
2019-04-20T03:45:07.612Z,83.60
2019-04-20T03:47:47.796Z,84.67
2019-04-20T03:50:33.285Z,85.28
2019-04-20T03:53:12.923Z,84.69
2019-04-20T03:55:57.708Z,85.80
2019-04-20T03:58:33.536Z,86.02
2019-04-20T04:01:43.332Z,86.54
2019-04-20T04:04:10.510Z,87.71
2019-04-20T04:06:31.210Z,88.47
2019-04-20T04:09:06.396Z,88.51
2019-04-20T04:11:38.144Z,87.49
2019-04-20T04:13:56.572Z,87.72
2019-04-20T04:16:34.255Z,87.33
2019-04-20T04:19:08.728Z,86.58
2019-04-20T04:21:49.683Z,86.09
2019-04-20T04:24:19.303Z,85.76
2019-04-20T04:26:51.670Z,86.57
2019-04-20T04:29:30.079Z,86.41
2019-04-20T04:32:05.434Z,85.83
2019-04-20T04:34:30.824Z,85.58
2019-04-20T04:37:03.438Z,86.11
2019-04-20T04:39:36.924Z,85.97
2019-04-20T04:42:19.127Z,85.25
2019-04-20T04:44:35.412Z,84.95
2019-04-20T04:46:58.494Z,84.51
2019-04-20T04:49:32.837Z,83.80
2019-04-20T04:52:05.190Z,83.36
2019-04-20T04:54:43.557Z,83.28
2019-04-20T04:57:03.233Z,82.83
2019-04-20T04:59:34.187Z,82.15
2019-04-20T05:02:05.518Z,81.33
2019-04-20T05:05:17.755Z,80.84
2019-04-20T05:07:43.882Z,80.25
2019-04-20T05:10:05.575Z,79.51
2019-04-20T05:12:37.696Z,78.54
2019-04-20T05:15:17.284Z,77.86
2019-04-20T05:18:04.447Z,77.27
2019-04-20T05:20:38.767Z,76.77
2019-04-20T05:23:22.054Z,74.62
2019-04-20T05:26:20.193Z,72.84
2019-04-20T05:28:45.857Z,71.80
2019-04-20T05:31:09.696Z,70.18
2019-04-20T05:34:02.297Z,70.69
2019-04-20T05:36:28.138Z,70.50
2019-04-20T05:39:19.179Z,69.44
2019-04-20T05:41:33.241Z,68.72
2019-04-20T05:44:39.025Z,69.03
2019-04-20T05:47:06.954Z,68.85
2019-04-20T05:49:34.883Z,68.60
2019-04-20T05:52:24.084Z,69.03
2019-04-20T05:54:47.549Z,68.52
2019-04-20T05:57:21.074Z,66.70
2019-04-20T05:59:59.493Z,66.88
2019-04-20T06:02:29.090Z,67.08
2019-04-20T06:07:31.408Z,64.66
2019-04-20T06:10:06.089Z,63.34
2019-04-20T06:12:36.302Z,62.82
2019-04-20T06:15:14.433Z,61.59
2019-04-20T06:18:02.455Z,61.85
2019-04-20T06:20:39.218Z,62.38
2019-04-20T06:23:51.947Z,62.50
2019-04-20T06:26:37.002Z,62.25
2019-04-20T06:29:45.824Z,58.50
2019-04-20T06:32:23.479Z,52.59
2019-04-20T06:34:48.983Z,50.87
2019-04-20T06:37:21.298Z,48.24
2019-04-20T06:39:59.180Z,45.55
2019-04-20T06:42:29.012Z,47.40
2019-04-20T06:44:57.646Z,47.33
2019-04-20T06:47:31.101Z,51.21
2019-04-20T06:50:07.170Z,54.14
2019-04-20T06:52:52.563Z,54.98
2019-04-20T06:55:38.123Z,54.72
2019-04-20T06:58:01.257Z,55.42
2019-04-20T07:01:10.906Z,53.20
2019-04-20T07:04:15.421Z,49.48
2019-04-20T07:06:30.713Z,47.57
2019-04-20T07:08:57.319Z,45.89
2019-04-20T07:11:25.033Z,45.18
2019-04-20T07:13:45.895Z,45.52
2019-04-20T07:16:44.861Z,45.48
2019-04-20T07:19:19.037Z,45.24
2019-04-20T07:22:10.551Z,45.23
2019-04-20T07:24:38.438Z,45.42
2019-04-20T07:27:00.765Z,43.24
2019-04-20T07:29:36.759Z,42.93
2019-04-20T07:32:00.231Z,42.36
2019-04-20T07:34:34.922Z,42.29
2019-04-20T07:37:45.212Z,41.27
2019-04-20T07:39:48.282Z,40.57
2019-04-20T07:42:24.240Z,40.63
2019-04-20T07:44:56.775Z,41.09
2019-04-20T07:47:32.831Z,40.84
2019-04-20T07:49:52.595Z,41.04
2019-04-20T07:52:06.182Z,40.95
2019-04-20T07:55:21.589Z,40.88
2019-04-20T07:57:24.684Z,41.65
2019-04-20T08:00:00.378Z,41.18
2019-04-20T08:02:58.673Z,42.47
2019-04-20T08:05:39.201Z,40.78
2019-04-20T08:08:17.910Z,41.91
2019-04-20T08:10:52.363Z,40.98
2019-04-20T08:13:35.958Z,41.07
2019-04-20T08:16:00.641Z,41.30
2019-04-20T08:18:32.275Z,40.96
2019-04-20T08:21:02.398Z,40.17
2019-04-20T08:23:35.086Z,39.34
2019-04-20T08:26:00.502Z,39.77
2019-04-20T08:28:46.527Z,38.76
2019-04-20T08:31:35.954Z,38.39
2019-04-20T08:34:38.041Z,39.27
2019-04-20T08:36:52.612Z,37.17
2019-04-20T08:41:56.389Z,37.06
2019-04-20T08:44:47.064Z,37.00
2019-04-20T08:47:21.488Z,36.71
2019-04-20T08:49:35.286Z,35.43
2019-04-20T08:52:34.402Z,35.43
2019-04-20T08:54:31.286Z,36.13
2019-04-20T08:56:53.645Z,35.76
2019-04-20T08:59:21.104Z,35.42
2019-04-20T09:01:53.522Z,34.15
2019-04-20T09:04:37.309Z,33.55
2019-04-20T09:07:07.707Z,33.55
2019-04-20T09:09:49.524Z,33.64
2019-04-20T09:12:15.870Z,34.86
2019-04-20T09:14:36.779Z,34.29
2019-04-20T09:17:27.222Z,33.88
2019-04-20T09:20:01.378Z,33.67
2019-04-20T09:23:03.246Z,34.01
2019-04-20T09:25:53.636Z,33.47
2019-04-20T09:28:37.134Z,34.09
2019-04-20T09:31:20.202Z,34.46
2019-04-20T09:34:07.541Z,34.20
2019-04-20T09:36:42.034Z,33.20
2019-04-20T09:39:32.630Z,33.56
2019-04-20T09:42:22.082Z,33.82
2019-04-20T09:44:55.970Z,33.63
2019-04-20T09:47:33.762Z,32.73
2019-04-20T09:50:12.657Z,33.60
2019-04-20T09:52:49.078Z,32.62
2019-04-20T09:55:14.896Z,31.68
2019-04-20T09:57:54.240Z,31.73
2019-04-20T10:00:25.831Z,32.10
2019-04-20T10:02:39.961Z,32.40
2019-04-20T10:05:11.637Z,31.18
2019-04-20T10:07:42.613Z,31.16
2019-04-20T10:10:26.083Z,30.70
2019-04-20T10:12:47.954Z,30.81
2019-04-20T10:15:21.310Z,29.94
2019-04-20T10:17:52.039Z,31.05
2019-04-20T10:20:29.801Z,31.11
2019-04-20T10:22:54.477Z,31.58
2019-04-20T10:25:24.872Z,32.12
2019-04-20T10:27:55.828Z,33.84
2019-04-20T10:30:26.405Z,34.05
2019-04-20T10:32:57.489Z,34.19
2019-04-20T10:35:29.664Z,32.96
2019-04-20T10:38:05.424Z,34.05
2019-04-20T10:40:50.292Z,33.09
2019-04-20T10:43:08.269Z,31.54
2019-04-20T10:45:39.229Z,30.97
2019-04-20T10:48:10.903Z,29.67
2019-04-20T10:50:41.297Z,29.11
2019-04-20T10:53:12.130Z,28.61
2019-04-20T10:55:43.149Z,28.03
2019-04-20T10:58:13.702Z,27.12
2019-04-20T11:00:46.127Z,26.85
2019-04-20T11:03:17.755Z,27.15
2019-04-20T11:05:48.980Z,26.60
2019-04-20T11:08:20.378Z,26.07
2019-04-20T11:11:05.013Z,25.03
2019-04-20T11:13:25.550Z,25.07
2019-04-20T11:15:56.681Z,25.34
2019-04-20T11:18:27.376Z,26.14
2019-04-20T11:20:57.881Z,26.96
2019-04-20T11:23:28.766Z,26.96
2019-04-20T11:26:00.128Z,27.39
2019-04-20T11:28:32.363Z,27.63
2019-04-20T11:31:04.070Z,26.55
2019-04-20T11:33:34.634Z,26.48
2019-04-20T11:36:05.322Z,27.37
2019-04-20T11:38:35.899Z,27.70
2019-04-20T11:41:14.480Z,26.44
2019-04-20T11:43:39.822Z,25.63
2019-04-20T11:46:10.336Z,25.63
2019-04-20T11:48:41.389Z,23.75
2019-04-20T11:51:13.771Z,24.03
2019-04-20T11:53:46.067Z,23.29
2019-04-20T11:56:21.296Z,23.29
2019-04-20T11:58:49.184Z,22.76
2019-04-20T12:01:47.691Z,22.45
2019-04-20T12:04:27.102Z,22.60
2019-04-20T12:06:46.510Z,22.77
2019-04-20T12:09:17.468Z,22.50
2019-04-20T12:12:02.065Z,23.96
2019-04-20T12:14:20.740Z,24.85
2019-04-20T12:16:51.358Z,24.99
2019-04-20T12:19:22.920Z,25.11
2019-04-20T12:21:53.894Z,25.03
2019-04-20T12:24:24.660Z,24.89
2019-04-20T12:26:56.471Z,24.93
2019-04-20T12:29:27.948Z,24.93
2019-04-20T12:32:02.254Z,25.18
2019-04-20T12:34:30.868Z,25.51
2019-04-20T12:37:01.239Z,24.95
2019-04-20T12:39:33.229Z,23.49
2019-04-20T12:42:07.643Z,22.72
2019-04-20T12:44:37.432Z,20.39
2019-04-20T12:47:10.063Z,20.64
2019-04-20T12:49:41.349Z,20.35
2019-04-20T12:52:12.520Z,20.77
2019-04-20T12:54:45.095Z,21.53
2019-04-20T12:57:16.458Z,22.50
2019-04-20T12:59:49.585Z,22.64
2019-04-20T13:02:21.213Z,23.37
2019-04-20T13:04:51.539Z,22.76
2019-04-20T13:07:22.743Z,22.57
2019-04-20T13:17:14.545Z,22.55
2019-04-20T13:19:45.126Z,21.48
2019-04-20T13:22:17.059Z,21.96
2019-04-20T13:24:47.685Z,22.17
2019-04-20T13:27:18.691Z,22.26
2019-04-20T13:29:52.188Z,23.03
2019-04-20T13:32:23.513Z,23.77
2019-04-20T13:34:54.197Z,24.78
2019-04-20T13:37:26.384Z,23.21
2019-04-20T13:39:58.582Z,25.19
2019-04-20T13:42:31.438Z,25.13
2019-04-20T13:45:01.179Z,23.74
2019-04-20T13:47:33.208Z,23.74
2019-04-20T13:50:03.608Z,23.10
2019-04-20T13:52:35.038Z,22.65
2019-04-20T13:55:06.457Z,20.82
2019-04-20T13:57:47.141Z,21.53
2019-04-20T14:00:39.662Z,21.93
2019-04-20T14:03:11.374Z,23.27
2019-04-20T14:05:42.587Z,24.51
2019-04-20T14:08:17.653Z,24.40
2019-04-20T14:10:49.261Z,25.05
2019-04-20T14:13:22.082Z,24.54
2019-04-20T14:15:53.369Z,23.63
2019-04-20T14:18:25.036Z,24.43
2019-04-20T14:20:56.774Z,23.90
2019-04-20T14:23:28.191Z,23.90
2019-04-20T14:25:58.799Z,24.41
2019-04-20T14:28:31.234Z,24.90
2019-04-20T14:31:01.847Z,25.25
2019-04-20T14:33:32.726Z,24.71
2019-04-20T14:36:03.631Z,24.71
2019-04-20T14:38:34.277Z,24.23
2019-04-20T14:41:04.762Z,23.13
2019-04-20T14:43:36.440Z,23.50
2019-04-20T14:46:08.561Z,22.38
2019-04-20T14:48:38.999Z,21.78
2019-04-20T14:51:09.800Z,21.33
2019-04-20T14:53:41.306Z,20.64
2019-04-20T14:56:13.360Z,21.26
2019-04-20T14:58:51.473Z,20.91
2019-04-20T15:01:52.745Z,21.49
2019-04-20T15:04:25.595Z,21.70
2019-04-20T15:06:56.847Z,21.90
2019-04-20T15:09:27.207Z,21.26
2019-04-20T15:11:58.947Z,21.31
2019-04-20T15:14:29.383Z,20.12
2019-04-20T15:17:00.608Z,20.91
2019-04-20T15:19:45.489Z,20.37
2019-04-20T15:22:33.880Z,20.68
2019-04-20T15:25:05.441Z,21.23
2019-04-20T15:27:37.282Z,21.26
2019-04-20T15:30:11.956Z,21.97
2019-04-20T15:32:43.059Z,21.97
2019-04-20T15:35:17.430Z,21.90
2019-04-20T15:37:47.069Z,21.96
2019-04-20T15:40:17.169Z,21.97
2019-04-20T15:42:54.984Z,21.24
2019-04-20T15:45:15.674Z,21.36
2019-04-20T15:47:43.789Z,20.91
2019-04-20T15:50:11.800Z,21.89
2019-04-20T15:52:44.660Z,22.44
2019-04-20T15:55:19.541Z,22.51
2019-04-20T15:57:38.970Z,22.51
2019-04-20T16:00:08.589Z,22.69
2019-04-20T16:02:57.085Z,23.14
2019-04-20T16:05:47.218Z,22.88
2019-04-20T16:08:34.704Z,23.68
2019-04-20T16:11:04.643Z,22.15
2019-04-20T16:13:37.503Z,21.26
2019-04-20T16:16:01.665Z,21.33
2019-04-20T16:18:30.585Z,21.34
2019-04-20T16:21:06.322Z,21.27
2019-04-20T16:23:30.524Z,21.70
2019-04-20T16:26:07.797Z,21.21
2019-04-20T16:28:35.482Z,21.05
2019-04-20T16:31:09.676Z,21.01
2019-04-20T16:33:35.172Z,21.01
2019-04-20T16:36:04.767Z,20.97
2019-04-20T16:38:33.079Z,20.88
2019-04-20T16:41:02.111Z,21.78
2019-04-20T16:43:35.791Z,21.78
2019-04-20T16:45:59.342Z,21.99
2019-04-20T16:48:26.711Z,21.97
2019-04-20T16:50:55.182Z,22.03
2019-04-20T16:53:22.807Z,22.30
2019-04-20T16:55:50.616Z,22.87
2019-04-20T16:58:19.824Z,22.91
2019-04-20T17:00:47.816Z,23.41
2019-04-20T17:03:15.482Z,23.36
2019-04-20T17:05:43.255Z,23.91
2019-04-20T17:08:11.133Z,24.89
2019-04-20T17:10:39.205Z,25.24
2019-04-20T17:13:06.779Z,26.74
2019-04-20T17:15:34.036Z,26.98
2019-04-20T17:18:03.351Z,27.90
2019-04-20T17:20:32.752Z,28.76
2019-04-20T17:23:00.661Z,29.69
2019-04-20T17:25:30.196Z,30.33
2019-04-20T17:28:17.311Z,30.88
2019-04-20T17:31:22.514Z,31.31
2019-04-20T17:34:07.657Z,32.01
2019-04-20T17:36:26.252Z,32.42
2019-04-20T17:38:56.515Z,33.47
2019-04-20T17:41:47.213Z,34.11
2019-04-20T17:44:12.997Z,34.66
2019-04-20T17:46:35.758Z,34.50
2019-04-20T17:49:09.669Z,34.73
2019-04-20T17:51:39.728Z,34.40
2019-04-20T17:54:14.160Z,34.73
2019-04-20T17:56:42.648Z,35.60
2019-04-20T17:59:10.427Z,35.55
2019-04-20T18:02:06.876Z,36.27
2019-04-20T18:04:53.816Z,36.92
2019-04-20T18:07:18.292Z,37.47
2019-04-20T18:09:49.203Z,38.10
2019-04-20T18:12:04.550Z,38.39
2019-04-20T18:14:46.299Z,38.87
2019-04-20T18:17:40.612Z,39.11
2019-04-20T18:20:03.419Z,39.21
2019-04-20T18:22:31.815Z,39.94
2019-04-20T18:25:22.349Z,40.74
2019-04-20T18:27:45.591Z,40.51
2019-04-20T18:30:15.625Z,41.27
2019-04-20T18:32:33.640Z,41.20
2019-04-20T18:35:08.414Z,42.02
2019-04-20T18:37:36.465Z,41.82
2019-04-20T18:40:12.444Z,42.08
2019-04-20T18:42:40.374Z,42.09
2019-04-20T18:45:23.126Z,42.15
2019-04-20T18:47:56.299Z,42.27
2019-04-20T18:50:16.523Z,42.29
2019-04-20T18:52:35.746Z,42.54
2019-04-20T18:55:06.357Z,42.50
2019-04-20T18:57:34.957Z,42.67
2019-04-20T19:00:04.646Z,42.71
2019-04-20T19:02:40.928Z,43.04
2019-04-20T19:05:07.318Z,43.35
2019-04-20T19:07:41.415Z,43.62
2019-04-20T19:10:14.532Z,44.51
2019-04-20T19:12:46.178Z,44.46
2019-04-20T19:15:43.920Z,44.98
2019-04-20T19:18:06.986Z,45.38
2019-04-20T19:20:28.905Z,45.21
2019-04-20T19:22:58.041Z,48.22
2019-04-20T19:25:30.806Z,49.34
2019-04-20T19:27:57.556Z,50.64
2019-04-20T19:30:35.485Z,51.12
2019-04-20T19:33:11.378Z,50.19
2019-04-20T19:35:33.892Z,50.48
2019-04-20T19:38:04.255Z,51.89
2019-04-20T19:40:37.241Z,54.27
2019-04-20T19:43:02.404Z,54.86
2019-04-20T19:45:46.273Z,54.65
2019-04-20T19:48:05.726Z,55.19
2019-04-20T19:50:53.720Z,54.76
2019-04-20T19:53:18.391Z,54.92
2019-04-20T19:55:31.347Z,55.52
2019-04-20T19:58:09.762Z,55.37
2019-04-20T20:00:48.457Z,55.06
2019-04-20T20:03:15.505Z,56.52
2019-04-20T20:05:48.020Z,57.13
2019-04-20T20:08:19.720Z,57.98
2019-04-20T20:10:45.822Z,58.82
2019-04-20T20:13:14.652Z,59.95
2019-04-20T20:15:43.704Z,60.09
2019-04-20T20:18:30.644Z,60.33
2019-04-20T20:20:59.513Z,59.44
2019-04-20T20:23:12.080Z,59.14
2019-04-20T20:25:44.676Z,61.00
2019-04-20T20:28:18.998Z,61.98
2019-04-20T20:30:55.583Z,63.19
2019-04-20T20:33:25.774Z,63.79
2019-04-20T20:35:48.149Z,64.43
2019-04-20T20:38:16.816Z,64.45
2019-04-20T20:40:43.522Z,64.16
2019-04-20T20:43:17.283Z,63.79
2019-04-20T20:45:43.281Z,63.81
2019-04-20T20:48:24.414Z,63.51
2019-04-20T20:50:53.308Z,63.04
2019-04-20T20:53:14.280Z,63.52
2019-04-20T20:55:40.702Z,63.29
2019-04-20T20:58:11.385Z,63.59
2019-04-20T21:00:46.097Z,63.36
2019-04-20T21:03:06.024Z,63.56
2019-04-20T21:05:33.579Z,63.31
2019-04-20T21:08:01.676Z,63.51
2019-04-20T21:10:35.597Z,64.18
2019-04-20T21:13:01.812Z,63.86
2019-04-20T21:15:30.263Z,63.60
2019-04-20T21:18:20.611Z,62.54
2019-04-20T21:20:49.220Z,62.50
2019-04-20T21:23:11.534Z,63.37
2019-04-20T21:25:36.002Z,64.63
2019-04-20T21:27:58.732Z,64.40
2019-04-20T21:30:32.970Z,64.51
2019-04-20T21:33:00.411Z,64.90
2019-04-20T21:35:25.938Z,64.86
2019-04-20T21:38:00.415Z,64.90
2019-04-20T21:40:32.358Z,65.50
2019-04-20T21:42:59.293Z,65.84
2019-04-20T21:45:30.057Z,66.13
2019-04-20T21:47:54.595Z,66.26
2019-04-20T21:50:38.220Z,66.39
2019-04-20T21:52:58.596Z,66.17
2019-04-20T21:55:25.972Z,66.14
2019-04-20T21:57:56.729Z,66.12
2019-04-20T22:00:44.539Z,65.30
2019-04-20T22:03:13.678Z,64.39
2019-04-20T22:05:42.314Z,65.26
2019-04-20T22:08:14.012Z,65.02
2019-04-20T22:10:40.888Z,64.47
2019-04-20T22:13:09.836Z,64.03
2019-04-20T22:15:46.694Z,64.22
2019-04-20T22:18:12.368Z,64.26
2019-04-20T22:20:49.384Z,65.20
2019-04-20T22:23:23.313Z,66.72
2019-04-20T22:25:54.533Z,67.04
2019-04-20T22:28:05.760Z,66.94
2019-04-20T22:30:34.251Z,67.43
2019-04-20T22:33:05.931Z,66.68
2019-04-20T22:35:36.056Z,66.73
2019-04-20T22:38:22.722Z,66.90
2019-04-20T22:40:50.085Z,66.89
2019-04-20T22:43:23.998Z,66.72
2019-04-20T22:45:51.158Z,66.48
2019-04-20T22:48:19.231Z,66.28
2019-04-20T22:51:08.337Z,66.42
2019-04-20T22:53:31.076Z,66.58
2019-04-20T22:56:08.709Z,66.67
2019-04-20T22:58:27.467Z,66.60
2019-04-20T23:00:53.659Z,66.06
2019-04-20T23:03:14.690Z,65.81
2019-04-20T23:05:42.776Z,66.00
2019-04-20T23:08:10.954Z,66.47
2019-04-20T23:10:42.220Z,66.42
2019-04-20T23:13:09.464Z,65.69
2019-04-20T23:15:38.366Z,65.66
2019-04-20T23:18:06.345Z,65.73
2019-04-20T23:20:38.717Z,65.21
2019-04-20T23:23:04.940Z,65.12
2019-04-20T23:25:33.371Z,64.57
2019-04-20T23:28:08.185Z,64.08
2019-04-20T23:30:35.654Z,63.86
2019-04-20T23:33:02.135Z,63.42
2019-04-20T23:35:30.406Z,63.13
2019-04-20T23:38:02.918Z,62.97
2019-04-20T23:40:29.893Z,62.93
2019-04-20T23:43:20.261Z,63.27
2019-04-20T23:45:59.334Z,62.82
2019-04-20T23:48:38.942Z,63.23
2019-04-20T23:51:25.006Z,63.43
2019-04-20T23:53:45.266Z,64.27
2019-04-20T23:56:01.876Z,64.99
2019-04-20T23:58:30.950Z,66.99
